createdAt,value
2022-08-04T00:03:02.461Z,100483.13
2022-08-04T00:06:04.121Z,100471.56
2022-08-04T00:08:36.154Z,100479.66
2022-08-04T00:11:03.850Z,100469.88
2022-08-04T00:13:38.248Z,100479.81
2022-08-04T00:16:32.917Z,100471.81
2022-08-04T00:19:11.365Z,100479.06
2022-08-04T00:21:39.403Z,100474.63
2022-08-04T00:24:10.464Z,100466.72
2022-08-04T00:26:40.060Z,100476.72
2022-08-04T00:29:06.641Z,100480.44
2022-08-04T00:31:54.066Z,100482.28
2022-08-04T00:34:23.426Z,100485.09
2022-08-04T00:36:50.174Z,100480.72
2022-08-04T00:39:17.379Z,100476.31
2022-08-04T00:42:08.088Z,100477.31
2022-08-04T00:45:01.022Z,100482.75
2022-08-04T00:47:57.809Z,100473.91
2022-08-04T00:50:40.975Z,100470.44
2022-08-04T00:53:33.213Z,100471.44
2022-08-04T00:56:16.484Z,100472.41
2022-08-04T00:59:11.832Z,100472.50
2022-08-04T01:01:52.694Z,100463.59
2022-08-04T01:04:29.726Z,100469.09
2022-08-04T01:07:23.174Z,100470.94
2022-08-04T01:10:05.120Z,100472.81
2022-08-04T01:12:59.745Z,100474.72
2022-08-04T01:15:59.856Z,100467.63
2022-08-04T01:18:41.914Z,100465.88
2022-08-04T01:21:30.399Z,100466.00
2022-08-04T01:24:18.018Z,100467.84
2022-08-04T01:27:06.032Z,100462.56
2022-08-04T01:29:47.346Z,100462.63
2022-08-04T01:32:40.524Z,100461.84
2022-08-04T01:35:47.380Z,100465.53
2022-08-04T01:38:23.884Z,100462.97
2022-08-04T01:40:59.938Z,100452.28
2022-08-04T01:43:28.790Z,100447.00
2022-08-04T01:45:58.937Z,100453.34
2022-08-04T01:48:27.339Z,100448.94
2022-08-04T01:50:57.452Z,100454.34
2022-08-04T01:53:30.557Z,100454.50
2022-08-04T01:55:57.853Z,100456.34
2022-08-04T01:58:25.546Z,100445.69
2022-08-04T02:00:58.440Z,100449.34
2022-08-04T02:04:18.174Z,100449.38
2022-08-04T02:06:31.789Z,100448.53
2022-08-04T02:09:12.115Z,100445.97
2022-08-04T02:11:41.283Z,100444.22
2022-08-04T02:14:41.059Z,100448.72
2022-08-04T02:17:34.597Z,100445.22
2022-08-04T02:20:07.194Z,100443.53
2022-08-04T02:22:40.508Z,100445.38
2022-08-04T02:25:09.542Z,100444.53
2022-08-04T02:28:13.172Z,100438.38
2022-08-04T02:30:55.046Z,100435.75
2022-08-04T02:33:31.104Z,100426.81
2022-08-04T02:36:03.138Z,100430.44
2022-08-04T02:38:40.729Z,100435.91
2022-08-04T02:41:09.759Z,100434.13
2022-08-04T02:43:51.568Z,100432.44
2022-08-04T02:46:20.961Z,100426.19
2022-08-04T02:48:50.138Z,100426.22
2022-08-04T02:51:21.676Z,100420.91
2022-08-04T02:53:53.987Z,100415.63
2022-08-04T02:56:22.426Z,100413.84
2022-08-04T02:58:53.343Z,100423.69
2022-08-04T03:01:22.580Z,100418.44
2022-08-04T03:04:01.919Z,100417.53
2022-08-04T03:06:50.250Z,100416.69
2022-08-04T03:09:35.562Z,100416.75
2022-08-04T03:12:26.571Z,100416.84
2022-08-04T03:15:08.234Z,100415.09
2022-08-04T03:18:10.240Z,100408.88
2022-08-04T03:20:55.717Z,100417.00
2022-08-04T03:23:31.588Z,100410.78
2022-08-04T03:26:25.318Z,100420.66
2022-08-04T03:29:26.471Z,100414.50
2022-08-04T03:32:28.667Z,100417.19
2022-08-04T03:35:23.310Z,100423.50
2022-08-04T03:38:11.102Z,100422.59
2022-08-04T03:41:09.060Z,100431.66
2022-08-04T03:44:13.010Z,100421.84
2022-08-04T03:47:16.942Z,100423.69
2022-08-04T03:50:05.281Z,100425.47
2022-08-04T03:53:13.818Z,100421.09
2022-08-04T03:56:14.802Z,100420.22
2022-08-04T03:58:59.560Z,100419.31
2022-08-04T04:02:06.488Z,100414.88
2022-08-04T04:04:58.289Z,100416.69
2022-08-04T04:08:04.355Z,100415.78
2022-08-04T04:11:13.410Z,100417.56
2022-08-04T04:13:58.721Z,100404.16
2022-08-04T04:17:08.886Z,100415.72
2022-08-04T04:20:06.127Z,100414.78
2022-08-04T04:22:57.774Z,100419.25
2022-08-04T04:25:56.065Z,100422.84
2022-08-04T04:28:50.499Z,100414.75
2022-08-04T04:31:38.264Z,100424.63
2022-08-04T04:34:08.640Z,100420.97
2022-08-04T04:36:53.835Z,100428.16
2022-08-04T04:39:28.210Z,100423.59
2022-08-04T04:42:39.645Z,100434.28
2022-08-04T04:45:20.841Z,100428.81
2022-08-04T04:48:07.067Z,100434.13
2022-08-04T04:50:44.737Z,100439.44
2022-08-04T04:53:21.015Z,100437.56
2022-08-04T04:56:29.643Z,100429.31
2022-08-04T04:58:58.800Z,100434.56
2022-08-04T05:01:52.143Z,100433.59
2022-08-04T05:04:46.420Z,100429.91
2022-08-04T05:07:53.177Z,100435.97
2022-08-04T05:10:37.959Z,100432.22
2022-08-04T05:14:36.199Z,100432.13
2022-08-04T05:16:06.070Z,100422.09
2022-08-04T05:18:36.586Z,100436.28
2022-08-04T05:21:19.549Z,100432.56
2022-08-04T05:23:51.477Z,100434.22
2022-08-04T05:26:23.097Z,100431.41
2022-08-04T05:28:55.976Z,100434.84
2022-08-04T05:31:34.719Z,100436.53
2022-08-04T05:34:09.515Z,100430.13
2022-08-04T05:36:47.805Z,100434.41
2022-08-04T05:39:22.203Z,100430.59
2022-08-04T05:41:55.807Z,100427.69
2022-08-04T05:44:33.186Z,100422.94
2022-08-04T05:47:01.795Z,100424.50
2022-08-04T05:49:29.334Z,100435.97
2022-08-04T05:52:01.577Z,100425.97
2022-08-04T05:54:30.823Z,100428.47
2022-08-04T05:56:58.185Z,100422.03
2022-08-04T05:59:25.884Z,100425.34
2022-08-04T06:01:57.673Z,100424.28
2022-08-04T06:04:47.561Z,100424.88
2022-08-04T06:07:14.515Z,100412.78
2022-08-04T06:09:41.977Z,100417.81
2022-08-04T06:12:18.035Z,100405.81
2022-08-04T06:14:47.208Z,100402.81
2022-08-04T06:19:05.008Z,100409.63
2022-08-04T06:20:21.838Z,100410.94
2022-08-04T06:22:55.385Z,100412.28
2022-08-04T06:25:29.735Z,100411.94
2022-08-04T06:27:57.942Z,100414.22
2022-08-04T06:30:27.588Z,100411.16
2022-08-04T06:33:04.433Z,100415.22
2022-08-04T06:35:33.391Z,100411.25
2022-08-04T06:38:01.614Z,100412.66
2022-08-04T06:40:31.205Z,100409.53
2022-08-04T06:43:02.352Z,100411.00
2022-08-04T06:45:30.038Z,100396.19
2022-08-04T06:47:58.272Z,100399.25
2022-08-04T06:51:28.276Z,100401.50
2022-08-04T06:53:12.544Z,100395.66
2022-08-04T06:55:40.897Z,100389.72
2022-08-04T06:58:08.488Z,100396.44
2022-08-04T07:00:37.209Z,100394.84
2022-08-04T07:03:04.377Z,100386.34
2022-08-04T07:05:31.809Z,100390.41
2022-08-04T07:07:59.248Z,100386.31
2022-08-04T07:10:28.411Z,100386.75
2022-08-04T07:12:59.662Z,100393.63
2022-08-04T07:15:26.885Z,100392.38
2022-08-04T07:17:54.994Z,100385.66
2022-08-04T07:20:34.115Z,100392.38
2022-08-04T07:23:06.763Z,100383.63
2022-08-04T07:25:59.571Z,100384.75
2022-08-04T07:28:27.978Z,100378.66
2022-08-04T07:30:56.958Z,100380.81
2022-08-04T07:33:24.798Z,100384.84
2022-08-04T07:36:10.127Z,100382.50
2022-08-04T07:38:46.377Z,100373.00
2022-08-04T07:41:39.019Z,100372.59
2022-08-04T07:44:07.014Z,100371.94
2022-08-04T07:46:33.909Z,100366.06
2022-08-04T07:49:05.372Z,100366.63
2022-08-04T07:51:35.222Z,100366.19
2022-08-04T07:54:05.128Z,100368.38
2022-08-04T07:56:33.663Z,100367.09
2022-08-04T07:59:00.729Z,100367.41
2022-08-04T08:01:27.596Z,100368.66
2022-08-04T08:03:56.590Z,100360.03
2022-08-04T08:06:32.202Z,100355.78
2022-08-04T08:09:13.682Z,100352.63
2022-08-04T08:12:36.766Z,100345.72
2022-08-04T08:14:36.000Z,100346.09
2022-08-04T08:17:03.422Z,100342.97
2022-08-04T08:19:34.816Z,100338.78
2022-08-04T08:22:02.836Z,100333.84
2022-08-04T08:24:30.779Z,100342.44
2022-08-04T08:26:58.577Z,100333.78
2022-08-04T08:29:26.189Z,100335.75
2022-08-04T08:31:56.216Z,100328.03
2022-08-04T08:34:28.177Z,100329.38
2022-08-04T08:37:22.862Z,100326.09
2022-08-04T08:40:10.925Z,100329.41
2022-08-04T08:42:55.043Z,100327.13
2022-08-04T08:45:43.200Z,100324.63
2022-08-04T08:48:36.267Z,100324.06
2022-08-04T08:51:20.137Z,100329.09
2022-08-04T08:54:24.465Z,100325.81
2022-08-04T08:57:09.930Z,100317.78
2022-08-04T09:00:04.169Z,100320.81
2022-08-04T09:03:06.306Z,100325.88
2022-08-04T09:05:51.551Z,100322.06
2022-08-04T09:08:55.400Z,100324.09
2022-08-04T09:11:30.043Z,100325.47
2022-08-04T09:14:02.139Z,100320.63
2022-08-04T09:16:33.359Z,100319.41
2022-08-04T09:19:17.690Z,100315.47
2022-08-04T09:22:12.761Z,100317.81
2022-08-04T09:24:53.220Z,100316.53
2022-08-04T09:27:24.765Z,100311.47
2022-08-04T09:30:08.125Z,100311.94
2022-08-04T09:32:41.401Z,100314.03
2022-08-04T09:35:47.591Z,100318.19
2022-08-04T09:38:36.198Z,100327.03
2022-08-04T09:41:48.452Z,100317.78
2022-08-04T09:44:49.761Z,100307.59
2022-08-04T09:47:15.470Z,100303.94
2022-08-04T09:50:03.968Z,100296.97
2022-08-04T09:52:56.472Z,100303.47
2022-08-04T09:55:55.839Z,100302.16
2022-08-04T09:58:58.179Z,100292.69
2022-08-04T10:01:28.629Z,100297.50
2022-08-04T10:04:00.041Z,100284.66
2022-08-04T10:07:04.478Z,100287.31
2022-08-04T10:09:43.686Z,100278.47
2022-08-04T10:12:30.408Z,100277.94
2022-08-04T10:15:15.376Z,100279.13
2022-08-04T10:17:54.356Z,100278.56
2022-08-04T10:20:45.151Z,100281.50
2022-08-04T10:23:27.584Z,100274.41
2022-08-04T10:26:15.538Z,100275.97
2022-08-04T10:28:47.045Z,100265.97
2022-08-04T10:31:20.819Z,100266.06
2022-08-04T10:34:01.564Z,100268.09
2022-08-04T10:36:37.702Z,100270.50
2022-08-04T10:39:41.685Z,100258.31
2022-08-04T10:42:16.320Z,100256.09
2022-08-04T10:44:57.655Z,100254.13
2022-08-04T10:47:33.460Z,100256.59
2022-08-04T10:50:03.079Z,100256.06
2022-08-04T10:52:46.140Z,100253.47
2022-08-04T10:55:23.323Z,100244.41
2022-08-04T10:58:16.497Z,100246.00
2022-08-04T11:00:45.720Z,100242.50
2022-08-04T11:03:35.132Z,100245.75
2022-08-04T11:06:04.244Z,100253.19
2022-08-04T11:08:37.446Z,100247.09
2022-08-04T11:11:56.954Z,100241.63
2022-08-04T11:14:33.461Z,100234.19
2022-08-04T11:17:19.765Z,100246.97
2022-08-04T11:20:24.770Z,100236.81
2022-08-04T11:22:58.364Z,100239.16
2022-08-04T11:25:32.861Z,100241.91
2022-08-04T11:28:04.542Z,100238.72
2022-08-04T11:30:37.679Z,100250.22
2022-08-04T11:33:17.234Z,100245.72
2022-08-04T11:36:03.700Z,100240.75
2022-08-04T11:39:02.863Z,100231.78
2022-08-04T11:41:42.134Z,100235.28
2022-08-04T11:44:16.912Z,100224.31
2022-08-04T11:46:50.479Z,100226.66
2022-08-04T11:49:23.030Z,100223.13
2022-08-04T11:51:51.434Z,100227.63
2022-08-04T11:54:20.291Z,100223.66
2022-08-04T11:56:46.866Z,100227.75
2022-08-04T11:59:13.871Z,100228.44
2022-08-04T12:02:20.866Z,100235.97
2022-08-04T12:05:08.222Z,100231.09
2022-08-04T12:07:40.809Z,100239.66
2022-08-04T12:10:41.653Z,100236.44
2022-08-04T12:13:31.685Z,100235.66
2022-08-04T12:16:09.556Z,100235.34
2022-08-04T12:18:44.411Z,100237.53
2022-08-04T12:21:23.437Z,100231.00
2022-08-04T12:24:00.391Z,100237.97
2022-08-04T12:26:31.707Z,100235.47
2022-08-04T12:29:10.443Z,100232.72
2022-08-04T12:31:49.810Z,100228.84
2022-08-04T12:34:38.737Z,100225.91
2022-08-04T12:37:26.666Z,100218.94
2022-08-04T12:40:28.786Z,100226.84
2022-08-04T12:43:05.933Z,100224.28
2022-08-04T12:45:33.753Z,100226.28
2022-08-04T12:48:04.408Z,100223.38
2022-08-04T12:50:32.889Z,100218.94
2022-08-04T12:53:02.293Z,100210.34
2022-08-04T12:55:33.585Z,100200.97
2022-08-04T12:58:02.814Z,100213.78
2022-08-04T13:00:40.826Z,100218.03
2022-08-04T13:03:17.455Z,100209.94
2022-08-04T13:05:45.469Z,100203.31
2022-08-04T13:08:13.977Z,100204.84
2022-08-04T13:10:44.417Z,100195.75
2022-08-04T13:13:17.561Z,100196.81
2022-08-04T13:15:56.633Z,100198.81
2022-08-04T13:18:29.545Z,100193.50
2022-08-04T13:21:20.778Z,100178.06
2022-08-04T13:24:10.237Z,100194.69
2022-08-04T13:26:54.488Z,100177.63
2022-08-04T13:29:59.838Z,100191.41
2022-08-04T13:32:16.953Z,100189.75
2022-08-04T13:34:49.068Z,100180.72
2022-08-04T13:37:22.577Z,100184.22
2022-08-04T13:39:55.526Z,100178.00
2022-08-04T13:42:24.489Z,100175.94
2022-08-04T13:44:57.991Z,100168.03
2022-08-04T13:47:31.509Z,100172.84
2022-08-04T13:50:21.089Z,100168.28
2022-08-04T13:52:50.846Z,100174.66
2022-08-04T13:55:33.926Z,100166.78
2022-08-04T13:58:14.505Z,100164.69
2022-08-04T14:00:54.578Z,100163.31
2022-08-04T14:03:26.187Z,100155.03
2022-08-04T14:06:25.326Z,100148.53
2022-08-04T14:09:14.672Z,100151.16
2022-08-04T14:12:10.973Z,100142.19
2022-08-04T14:14:34.277Z,100138.16
2022-08-04T14:17:03.458Z,100147.38
2022-08-04T14:19:49.018Z,100123.44
2022-08-04T14:22:28.196Z,100120.56
2022-08-04T14:24:59.649Z,100131.00
2022-08-04T14:27:29.196Z,100131.59
2022-08-04T14:29:56.031Z,100134.78
2022-08-04T14:32:26.156Z,100123.25
2022-08-04T14:34:53.300Z,100127.63
2022-08-04T14:37:22.553Z,100123.09
2022-08-04T14:40:18.609Z,100122.50
2022-08-04T14:42:53.770Z,100121.53
2022-08-04T14:45:32.202Z,100120.81
2022-08-04T14:47:59.716Z,100125.16
2022-08-04T14:50:35.068Z,100121.22
2022-08-04T14:53:10.847Z,100123.81
2022-08-04T14:55:38.682Z,100122.84
2022-08-04T14:58:35.739Z,100112.16
2022-08-04T15:00:55.838Z,100119.63
2022-08-04T15:03:23.070Z,100115.41
2022-08-04T15:06:00.116Z,100117.22
2022-08-04T15:08:31.785Z,100113.25
2022-08-04T15:11:03.267Z,100112.81
2022-08-04T15:13:32.073Z,100113.94
2022-08-04T15:16:04.119Z,100104.66
2022-08-04T15:18:36.393Z,100109.31
2022-08-04T15:21:04.524Z,100113.84
2022-08-04T15:23:38.610Z,100118.34
2022-08-04T15:26:12.671Z,100108.09
2022-08-04T15:28:42.622Z,100099.44
2022-08-04T15:32:06.086Z,100100.44
2022-08-04T15:33:57.900Z,100093.34
2022-08-04T15:36:39.573Z,100096.75
2022-08-04T15:39:33.890Z,100090.44
2022-08-04T15:42:18.863Z,100098.22
2022-08-04T15:45:05.237Z,100125.53
2022-08-04T15:47:32.176Z,100153.66
2022-08-04T15:50:10.790Z,100216.97
2022-08-04T15:53:09.898Z,100205.63
2022-08-04T15:55:39.991Z,100197.56
2022-08-04T15:58:14.190Z,100177.56
2022-08-04T16:00:49.961Z,100193.00
2022-08-04T16:03:58.080Z,100193.19
2022-08-04T16:06:27.503Z,100188.13
2022-08-04T16:09:01.712Z,100179.50
2022-08-04T16:11:32.686Z,100176.47
2022-08-04T16:13:59.794Z,100166.38
2022-08-04T16:16:42.211Z,100155.81
2022-08-04T16:19:18.589Z,100142.91
2022-08-04T16:22:03.148Z,100155.50
2022-08-04T16:24:30.861Z,100146.88
2022-08-04T16:27:00.393Z,100143.59
2022-08-04T16:29:46.129Z,100141.69
2022-08-04T16:32:18.363Z,100125.09
2022-08-04T16:35:04.953Z,100124.94
2022-08-04T16:37:38.997Z,100127.41
2022-08-04T16:40:35.838Z,100144.41
2022-08-04T16:43:06.897Z,100141.66
2022-08-04T16:46:01.451Z,100143.44
2022-08-04T16:48:30.057Z,100141.00
2022-08-04T16:51:08.097Z,100141.91
2022-08-04T16:53:52.943Z,100133.84
2022-08-04T16:56:29.737Z,100136.09
2022-08-04T16:58:56.862Z,100138.78
2022-08-04T17:01:32.977Z,100129.53
2022-08-04T17:04:05.265Z,100137.34
2022-08-04T17:06:39.941Z,100140.41
2022-08-04T17:09:18.366Z,100146.34
2022-08-04T17:11:47.716Z,100201.66
2022-08-04T17:14:21.733Z,100203.63
2022-08-04T17:16:48.381Z,100191.53
2022-08-04T17:19:20.296Z,100185.91
2022-08-04T17:22:02.403Z,100190.19
2022-08-04T17:24:31.716Z,100188.72
2022-08-04T17:26:58.970Z,100184.44
2022-08-04T17:29:43.451Z,100193.75
2022-08-04T17:32:21.219Z,100198.25
2022-08-04T17:34:50.306Z,100197.16
2022-08-04T17:37:36.460Z,100197.03
2022-08-04T17:40:10.208Z,100193.16
2022-08-04T17:42:39.849Z,100216.47
2022-08-04T17:47:59.429Z,100220.31
2022-08-04T17:50:28.649Z,100223.78
2022-08-04T17:53:00.321Z,100234.56
2022-08-04T17:58:31.559Z,100230.09
2022-08-04T18:01:23.004Z,100224.75
2022-08-04T18:03:51.620Z,100215.16
2022-08-04T18:06:18.765Z,100219.97
2022-08-04T18:08:52.367Z,100224.91
2022-08-04T18:11:29.760Z,100229.19
2022-08-04T18:14:10.412Z,100228.09
2022-08-04T18:16:45.160Z,100227.72
2022-08-04T18:19:13.916Z,100222.66
2022-08-04T18:21:46.911Z,100225.84
2022-08-04T18:24:34.243Z,100226.38
2022-08-04T18:27:03.505Z,100231.41
2022-08-04T18:29:34.362Z,100234.69
2022-08-04T18:32:06.494Z,100234.34
2022-08-04T18:34:36.166Z,100229.47
2022-08-04T18:38:03.744Z,100233.53
2022-08-04T18:40:25.723Z,100234.06
2022-08-04T18:42:41.077Z,100232.69
2022-08-04T18:45:10.849Z,100236.59
2022-08-04T18:47:58.509Z,100241.41
2022-08-04T18:51:00.755Z,100249.09
2022-08-04T18:53:11.316Z,100241.59
2022-08-04T18:55:57.305Z,100245.81
2022-08-04T18:58:27.108Z,100249.97
2022-08-04T19:00:56.088Z,100245.06
2022-08-04T19:03:26.939Z,100256.28
2022-08-04T19:05:59.640Z,100247.63
2022-08-04T19:08:33.294Z,100245.25
2022-08-04T19:11:02.280Z,100251.84
2022-08-04T19:13:58.046Z,100254.88
2022-08-04T19:16:26.661Z,100251.53
2022-08-04T19:18:53.404Z,100254.56
2022-08-04T19:22:01.461Z,100261.09
2022-08-04T19:24:28.149Z,100262.25
2022-08-04T19:26:55.560Z,100277.94
2022-08-04T19:29:22.433Z,100288.22
2022-08-04T19:31:49.062Z,100284.91
2022-08-04T19:34:18.026Z,100285.19
2022-08-04T19:37:01.377Z,100288.19
2022-08-04T19:39:27.923Z,100290.25
2022-08-04T19:42:05.586Z,100285.25
2022-08-04T19:44:33.486Z,100296.44
2022-08-04T19:47:00.792Z,100297.63
2022-08-04T19:50:05.314Z,100292.47
2022-08-04T19:52:34.287Z,100284.28
2022-08-04T19:57:52.409Z,100287.69
2022-08-04T20:00:33.737Z,100299.31
2022-08-04T20:03:02.727Z,100302.84
2022-08-04T20:05:52.703Z,100308.25
2022-08-04T20:08:16.277Z,100303.72
2022-08-04T20:10:51.647Z,100310.06
2022-08-04T20:13:19.841Z,100319.25
2022-08-04T20:15:55.449Z,100317.63
2022-08-04T20:21:19.445Z,100321.97
2022-08-04T20:23:52.420Z,100350.44
2022-08-04T20:26:19.514Z,100360.84
2022-08-04T20:28:52.525Z,100347.06
2022-08-04T20:31:22.726Z,100346.69
2022-08-04T20:33:58.399Z,100358.00
2022-08-04T20:36:25.535Z,100367.34
2022-08-04T20:38:54.523Z,100371.22
2022-08-04T20:41:25.166Z,100378.66
2022-08-04T20:44:03.384Z,100370.84
2022-08-04T20:46:30.002Z,100371.94
2022-08-04T20:48:58.109Z,100367.59
2022-08-04T20:54:16.261Z,100374.81
2022-08-04T20:56:50.463Z,100376.66
2022-08-04T20:59:17.358Z,100373.06
2022-08-04T21:01:45.486Z,100372.19
2022-08-04T21:04:34.414Z,100386.59
2022-08-04T21:07:09.839Z,100390.22
2022-08-04T21:09:42.577Z,100395.63
2022-08-04T21:12:17.596Z,100406.47
2022-08-04T21:14:56.751Z,100399.44
2022-08-04T21:17:56.811Z,100402.28
2022-08-04T21:20:13.022Z,100388.84
2022-08-04T21:22:40.719Z,100381.75
2022-08-04T21:25:16.282Z,100373.66
2022-08-04T21:27:44.248Z,100371.91
2022-08-04T21:30:24.120Z,100375.50
2022-08-04T21:32:54.953Z,100371.91
2022-08-04T21:35:22.258Z,100369.28
2022-08-04T21:38:04.266Z,100355.69
2022-08-04T21:40:53.812Z,100357.59
2022-08-04T21:43:23.589Z,100365.69
2022-08-04T21:45:54.988Z,100370.28
2022-08-04T21:48:22.573Z,100382.97
2022-08-04T21:50:50.641Z,100393.84
2022-08-04T21:53:19.756Z,100418.16
2022-08-04T21:56:05.173Z,100446.16
2022-08-04T21:58:36.266Z,100455.38
2022-08-04T22:01:13.129Z,100454.56
2022-08-04T22:03:53.442Z,100455.50
2022-08-04T22:06:28.571Z,100436.66
2022-08-04T22:08:56.842Z,100424.09
2022-08-04T22:11:48.887Z,100417.97
2022-08-04T22:14:27.351Z,100412.13
2022-08-04T22:16:56.491Z,100391.75
2022-08-04T22:19:39.913Z,100384.03
2022-08-04T22:22:12.552Z,100365.66
2022-08-04T22:24:40.344Z,100382.19
2022-08-04T22:27:11.151Z,100412.94
2022-08-04T22:29:39.430Z,100408.38
2022-08-04T22:32:11.470Z,100422.47
2022-08-04T22:34:45.396Z,100415.13
2022-08-04T22:37:12.739Z,100418.47
2022-08-04T22:39:56.237Z,100420.19
2022-08-04T22:42:24.259Z,100401.97
2022-08-04T22:44:51.983Z,100391.00
2022-08-04T22:47:20.722Z,100397.25
2022-08-04T22:49:56.490Z,100392.00
2022-08-04T22:52:36.864Z,100385.84
2022-08-04T22:55:22.149Z,100381.56
2022-08-04T22:58:04.690Z,100383.50
2022-08-04T23:00:31.713Z,100381.03
2022-08-04T23:02:58.255Z,100387.63
2022-08-04T23:05:29.204Z,100387.56
2022-08-04T23:08:04.302Z,100367.69
2022-08-04T23:10:33.006Z,100342.59
2022-08-04T23:13:04.108Z,100336.41
2022-08-04T23:15:33.871Z,100364.94
2022-08-04T23:18:00.989Z,100389.78
2022-08-04T23:20:32.924Z,100394.34
2022-08-04T23:23:14.865Z,100410.56
2022-08-04T23:26:07.743Z,100401.53
2022-08-04T23:28:31.807Z,100387.88
2022-08-04T23:30:58.371Z,100379.78
2022-08-04T23:33:25.098Z,100367.22
2022-08-04T23:36:11.914Z,100382.03
2022-08-04T23:38:39.259Z,100362.72
2022-08-04T23:41:13.488Z,100348.44
2022-08-04T23:43:55.101Z,100357.34
2022-08-04T23:46:22.985Z,100367.00
2022-08-04T23:48:52.003Z,100348.00
2022-08-04T23:51:18.984Z,100349.84
2022-08-04T23:54:02.267Z,100326.06
2022-08-04T23:56:31.949Z,100336.97
2022-08-04T23:59:00.318Z,100380.16
